Sycamore Park, Indiana
Current Conditions -  °F | °C
As of 10:53 AM on Monday 26 Jan 2015 (Local Time) from KHUF Reporting Station
Overcast Overcast  
Wind Chill: 20°   Ceiling: 1600
Heat Index: 27°   Visibility: 10mi
Dew Point: 21°   Wind: 6mph
Humidity: 78%   Direction: 320°NW
Pressure: 29.99"   Gusts: NA
Location:  39.5107°N, 87.4772°W
Report Text: KHUF 261553Z 32005KT 10SM OVC016 M03/M06 A2999 RMK AO2 SLP163 T10281061
Loading
Personal Weather Stations






























Interactive Weather Map New forecast layout! Learn more

10-Day Weather Forecast

Advertisements
Track Severe Weather on mobile